sensor_id;sensor_type;location;lat;lon;timestamp;P1;durP1;ratioP1;P2;durP2;ratioP2
11847;SDS011;5983;49.966;8.052;2023-02-28T00:01:26;1.33;;;0.93;;
11847;SDS011;5983;49.966;8.052;2023-02-28T00:03:53;1.17;;;1.07;;
11847;SDS011;5983;49.966;8.052;2023-02-28T00:06:20;1.40;;;1.00;;
11847;SDS011;5983;49.966;8.052;2023-02-28T00:08:49;1.60;;;1.27;;
11847;SDS011;5983;49.966;8.052;2023-02-28T00:11:16;1.47;;;0.97;;
11847;SDS011;5983;49.966;8.052;2023-02-28T00:13:45;1.93;;;1.10;;
11847;SDS011;5983;49.966;8.052;2023-02-28T00:16:13;2.47;;;1.20;;
11847;SDS011;5983;49.966;8.052;2023-02-28T00:18:43;2.20;;;1.07;;
11847;SDS011;5983;49.966;8.052;2023-02-28T00:21:10;1.53;;;0.93;;
11847;SDS011;5983;49.966;8.052;2023-02-28T00:23:37;2.93;;;1.70;;
11847;SDS011;5983;49.966;8.052;2023-02-28T00:26:04;2.73;;;1.10;;
11847;SDS011;5983;49.966;8.052;2023-02-28T00:28:31;3.37;;;1.77;;
11847;SDS011;5983;49.966;8.052;2023-02-28T00:31:00;1.50;;;1.17;;
11847;SDS011;5983;49.966;8.052;2023-02-28T00:33:27;2.37;;;1.13;;
11847;SDS011;5983;49.966;8.052;2023-02-28T00:36:01;3.13;;;1.50;;
11847;SDS011;5983;49.966;8.052;2023-02-28T00:38:31;2.33;;;1.43;;
11847;SDS011;5983;49.966;8.052;2023-02-28T00:40:58;2.03;;;1.40;;
11847;SDS011;5983;49.966;8.052;2023-02-28T00:43:29;4.07;;;1.40;;
11847;SDS011;5983;49.966;8.052;2023-02-28T00:45:57;3.93;;;1.33;;
11847;SDS011;5983;49.966;8.052;2023-02-28T00:48:26;2.53;;;1.40;;
11847;SDS011;5983;49.966;8.052;2023-02-28T00:50:54;1.63;;;1.30;;
11847;SDS011;5983;49.966;8.052;2023-02-28T00:53:21;3.30;;;1.37;;
11847;SDS011;5983;49.966;8.052;2023-02-28T00:55:48;3.97;;;1.50;;
11847;SDS011;5983;49.966;8.052;2023-02-28T00:58:15;4.20;;;1.57;;
11847;SDS011;5983;49.966;8.052;2023-02-28T01:00:43;2.47;;;1.23;;
11847;SDS011;5983;49.966;8.052;2023-02-28T01:03:15;1.83;;;1.40;;
11847;SDS011;5983;49.966;8.052;2023-02-28T01:05:42;1.93;;;1.40;;
11847;SDS011;5983;49.966;8.052;2023-02-28T01:08:10;1.93;;;1.43;;
11847;SDS011;5983;49.966;8.052;2023-02-28T01:10:38;3.33;;;1.53;;
11847;SDS011;5983;49.966;8.052;2023-02-28T01:13:05;2.10;;;1.20;;
11847;SDS011;5983;49.966;8.052;2023-02-28T01:15:32;1.73;;;1.10;;
11847;SDS011;5983;49.966;8.052;2023-02-28T01:17:59;3.10;;;0.90;;
11847;SDS011;5983;49.966;8.052;2023-02-28T01:20:28;1.10;;;1.00;;
11847;SDS011;5983;49.966;8.052;2023-02-28T01:22:55;3.53;;;1.50;;
11847;SDS011;5983;49.966;8.052;2023-02-28T01:25:22;2.57;;;1.40;;
11847;SDS011;5983;49.966;8.052;2023-02-28T01:27:49;1.50;;;1.00;;
11847;SDS011;5983;49.966;8.052;2023-02-28T01:30:16;2.80;;;1.30;;
11847;SDS011;5983;49.966;8.052;2023-02-28T01:32:43;1.70;;;0.93;;
11847;SDS011;5983;49.966;8.052;2023-02-28T01:35:10;1.40;;;1.20;;
11847;SDS011;5983;49.966;8.052;2023-02-28T01:37:38;1.50;;;1.13;;
11847;SDS011;5983;49.966;8.052;2023-02-28T01:40:05;2.33;;;1.30;;
11847;SDS011;5983;49.966;8.052;2023-02-28T01:42:34;2.47;;;1.20;;
11847;SDS011;5983;49.966;8.052;2023-02-28T01:45:03;2.57;;;1.37;;
11847;SDS011;5983;49.966;8.052;2023-02-28T01:47:47;3.43;;;1.67;;
11847;SDS011;5983;49.966;8.052;2023-02-28T01:50:19;2.80;;;1.30;;
11847;SDS011;5983;49.966;8.052;2023-02-28T01:52:51;1.63;;;1.30;;
11847;SDS011;5983;49.966;8.052;2023-02-28T01:55:23;2.23;;;1.33;;
11847;SDS011;5983;49.966;8.052;2023-02-28T01:57:55;1.93;;;1.30;;
11847;SDS011;5983;49.966;8.052;2023-02-28T02:00:27;2.27;;;1.30;;
11847;SDS011;5983;49.966;8.052;2023-02-28T02:02:57;2.10;;;1.50;;
11847;SDS011;5983;49.966;8.052;2023-02-28T02:05:30;3.03;;;1.40;;
11847;SDS011;5983;49.966;8.052;2023-02-28T02:08:02;4.27;;;1.50;;
11847;SDS011;5983;49.966;8.052;2023-02-28T02:10:34;2.37;;;1.40;;
11847;SDS011;5983;49.966;8.052;2023-02-28T02:13:08;1.20;;;1.10;;
11847;SDS011;5983;49.966;8.052;2023-02-28T02:16:03;2.23;;;1.50;;
11847;SDS011;5983;49.966;8.052;2023-02-28T02:18:46;2.33;;;1.67;;
11847;SDS011;5983;49.966;8.052;2023-02-28T02:21:24;1.30;;;1.20;;
11847;SDS011;5983;49.966;8.052;2023-02-28T02:24:30;1.63;;;1.50;;
11847;SDS011;5983;49.966;8.052;2023-02-28T02:27:52;3.37;;;1.80;;
11847;SDS011;5983;49.966;8.052;2023-02-28T02:30:50;1.80;;;1.47;;
11847;SDS011;5983;49.966;8.052;2023-02-28T02:37:15;1.83;;;1.53;;
11847;SDS011;5983;49.966;8.052;2023-02-28T02:39:58;2.50;;;1.40;;
11847;SDS011;5983;49.966;8.052;2023-02-28T02:42:35;1.67;;;1.57;;
11847;SDS011;5983;49.966;8.052;2023-02-28T02:45:12;2.13;;;1.80;;
11847;SDS011;5983;49.966;8.052;2023-02-28T02:47:45;2.00;;;1.50;;
11847;SDS011;5983;49.966;8.052;2023-02-28T02:50:15;5.03;;;1.87;;
11847;SDS011;5983;49.966;8.052;2023-02-28T02:52:51;1.93;;;1.73;;
11847;SDS011;5983;49.966;8.052;2023-02-28T02:55:22;1.50;;;1.37;;
11847;SDS011;5983;49.966;8.052;2023-02-28T02:57:51;2.80;;;1.83;;
11847;SDS011;5983;49.966;8.052;2023-02-28T03:00:25;2.90;;;2.07;;
11847;SDS011;5983;49.966;8.052;2023-02-28T03:02:59;2.53;;;1.80;;
11847;SDS011;5983;49.966;8.052;2023-02-28T03:05:28;3.30;;;1.80;;
11847;SDS011;5983;49.966;8.052;2023-02-28T03:08:07;3.00;;;1.57;;
11847;SDS011;5983;49.966;8.052;2023-02-28T03:10:35;1.90;;;1.70;;
11847;SDS011;5983;49.966;8.052;2023-02-28T03:13:12;1.93;;;1.70;;
11847;SDS011;5983;49.966;8.052;2023-02-28T03:16:35;4.00;;;1.83;;
11847;SDS011;5983;49.966;8.052;2023-02-28T03:19:24;2.47;;;1.70;;
11847;SDS011;5983;49.966;8.052;2023-02-28T03:22:14;2.50;;;1.80;;
11847;SDS011;5983;49.966;8.052;2023-02-28T03:25:04;3.20;;;1.53;;
11847;SDS011;5983;49.966;8.052;2023-02-28T03:27:39;1.60;;;1.40;;
11847;SDS011;5983;49.966;8.052;2023-02-28T03:30:14;1.90;;;1.53;;
11847;SDS011;5983;49.966;8.052;2023-02-28T03:32:53;1.87;;;1.47;;
11847;SDS011;5983;49.966;8.052;2023-02-28T03:35:27;1.63;;;1.53;;
11847;SDS011;5983;49.966;8.052;2023-02-28T03:38:01;2.93;;;2.07;;
11847;SDS011;5983;49.966;8.052;2023-02-28T03:40:35;2.37;;;1.80;;
11847;SDS011;5983;49.966;8.052;2023-02-28T03:43:09;3.50;;;1.40;;
11847;SDS011;5983;49.966;8.052;2023-02-28T03:45:46;3.07;;;1.50;;
11847;SDS011;5983;49.966;8.052;2023-02-28T03:48:17;3.90;;;1.70;;
11847;SDS011;5983;49.966;8.052;2023-02-28T03:50:51;1.90;;;1.70;;
11847;SDS011;5983;49.966;8.052;2023-02-28T03:53:25;1.60;;;1.50;;
11847;SDS011;5983;49.966;8.052;2023-02-28T03:55:59;4.93;;;1.63;;
11847;SDS011;5983;49.966;8.052;2023-02-28T03:58:32;2.23;;;1.30;;
11847;SDS011;5983;49.966;8.052;2023-02-28T04:01:08;1.33;;;1.20;;
11847;SDS011;5983;49.966;8.052;2023-02-28T04:03:42;1.67;;;1.37;;
11847;SDS011;5983;49.966;8.052;2023-02-28T04:06:12;3.60;;;1.70;;
11847;SDS011;5983;49.966;8.052;2023-02-28T04:08:43;1.37;;;1.27;;
11847;SDS011;5983;49.966;8.052;2023-02-28T04:11:15;4.43;;;1.80;;
11847;SDS011;5983;49.966;8.052;2023-02-28T04:13:48;2.00;;;1.30;;
11847;SDS011;5983;49.966;8.052;2023-02-28T04:16:15;1.17;;;1.07;;
11847;SDS011;5983;49.966;8.052;2023-02-28T04:18:42;1.63;;;1.40;;
11847;SDS011;5983;49.966;8.052;2023-02-28T04:21:09;1.50;;;1.20;;
11847;SDS011;5983;49.966;8.052;2023-02-28T04:23:37;1.20;;;1.10;;
11847;SDS011;5983;49.966;8.052;2023-02-28T04:26:04;1.80;;;1.30;;
11847;SDS011;5983;49.966;8.052;2023-02-28T04:28:33;1.70;;;1.23;;
11847;SDS011;5983;49.966;8.052;2023-02-28T04:31:01;2.97;;;1.60;;
11847;SDS011;5983;49.966;8.052;2023-02-28T04:33:30;3.70;;;1.60;;
11847;SDS011;5983;49.966;8.052;2023-02-28T04:35:59;2.70;;;1.70;;
11847;SDS011;5983;49.966;8.052;2023-02-28T04:38:27;3.20;;;1.40;;
11847;SDS011;5983;49.966;8.052;2023-02-28T04:40:56;1.83;;;1.50;;
11847;SDS011;5983;49.966;8.052;2023-02-28T04:43:25;1.70;;;1.50;;
11847;SDS011;5983;49.966;8.052;2023-02-28T04:45:54;1.43;;;1.33;;
11847;SDS011;5983;49.966;8.052;2023-02-28T04:48:22;1.63;;;1.37;;
11847;SDS011;5983;49.966;8.052;2023-02-28T04:50:49;1.40;;;1.30;;
11847;SDS011;5983;49.966;8.052;2023-02-28T04:53:18;3.37;;;1.20;;
11847;SDS011;5983;49.966;8.052;2023-02-28T04:55:45;1.80;;;1.60;;
11847;SDS011;5983;49.966;8.052;2023-02-28T04:58:12;1.77;;;1.43;;
11847;SDS011;5983;49.966;8.052;2023-02-28T05:00:39;2.50;;;1.77;;
11847;SDS011;5983;49.966;8.052;2023-02-28T05:03:07;2.37;;;1.70;;
11847;SDS011;5983;49.966;8.052;2023-02-28T05:05:35;3.07;;;1.57;;
11847;SDS011;5983;49.966;8.052;2023-02-28T05:08:01;2.57;;;1.57;;
11847;SDS011;5983;49.966;8.052;2023-02-28T05:10:30;1.40;;;1.30;;
11847;SDS011;5983;49.966;8.052;2023-02-28T05:12:57;1.30;;;1.20;;
11847;SDS011;5983;49.966;8.052;2023-02-28T05:15:24;2.73;;;1.30;;
11847;SDS011;5983;49.966;8.052;2023-02-28T05:17:51;2.77;;;1.50;;
11847;SDS011;5983;49.966;8.052;2023-02-28T05:20:19;2.10;;;1.40;;
11847;SDS011;5983;49.966;8.052;2023-02-28T05:22:46;1.50;;;1.40;;
11847;SDS011;5983;49.966;8.052;2023-02-28T05:25:16;1.73;;;1.50;;
11847;SDS011;5983;49.966;8.052;2023-02-28T05:27:46;1.77;;;1.60;;
11847;SDS011;5983;49.966;8.052;2023-02-28T05:30:14;2.03;;;1.50;;
11847;SDS011;5983;49.966;8.052;2023-02-28T05:32:41;1.53;;;1.30;;
11847;SDS011;5983;49.966;8.052;2023-02-28T05:35:09;3.60;;;1.60;;
11847;SDS011;5983;49.966;8.052;2023-02-28T05:37:38;1.53;;;1.40;;
11847;SDS011;5983;49.966;8.052;2023-02-28T05:40:06;2.67;;;1.47;;
11847;SDS011;5983;49.966;8.052;2023-02-28T05:42:35;2.63;;;1.63;;
11847;SDS011;5983;49.966;8.052;2023-02-28T05:45:02;2.57;;;1.80;;
11847;SDS011;5983;49.966;8.052;2023-02-28T05:47:30;3.83;;;1.93;;
11847;SDS011;5983;49.966;8.052;2023-02-28T05:49:57;2.13;;;1.93;;
11847;SDS011;5983;49.966;8.052;2023-02-28T05:52:25;2.53;;;1.57;;
11847;SDS011;5983;49.966;8.052;2023-02-28T05:54:53;3.70;;;1.93;;
11847;SDS011;5983;49.966;8.052;2023-02-28T05:57:20;5.00;;;2.80;;
11847;SDS011;5983;49.966;8.052;2023-02-28T05:59:47;4.37;;;2.77;;
11847;SDS011;5983;49.966;8.052;2023-02-28T06:02:15;4.17;;;2.23;;
11847;SDS011;5983;49.966;8.052;2023-02-28T06:04:43;3.87;;;2.07;;
11847;SDS011;5983;49.966;8.052;2023-02-28T06:07:13;3.73;;;1.93;;
11847;SDS011;5983;49.966;8.052;2023-02-28T06:09:42;3.10;;;1.90;;
11847;SDS011;5983;49.966;8.052;2023-02-28T06:12:13;2.87;;;1.80;;
11847;SDS011;5983;49.966;8.052;2023-02-28T06:14:40;2.40;;;1.87;;
11847;SDS011;5983;49.966;8.052;2023-02-28T06:17:08;3.07;;;2.13;;
11847;SDS011;5983;49.966;8.052;2023-02-28T06:19:36;4.23;;;1.60;;
11847;SDS011;5983;49.966;8.052;2023-02-28T06:22:04;1.67;;;1.53;;
11847;SDS011;5983;49.966;8.052;2023-02-28T06:24:31;3.03;;;1.53;;
11847;SDS011;5983;49.966;8.052;2023-02-28T06:26:58;2.00;;;1.60;;
11847;SDS011;5983;49.966;8.052;2023-02-28T06:29:31;1.60;;;1.40;;
11847;SDS011;5983;49.966;8.052;2023-02-28T06:31:58;2.43;;;1.80;;
11847;SDS011;5983;49.966;8.052;2023-02-28T06:34:26;3.57;;;1.60;;
11847;SDS011;5983;49.966;8.052;2023-02-28T06:36:53;1.87;;;1.30;;
11847;SDS011;5983;49.966;8.052;2023-02-28T06:39:23;3.20;;;1.80;;
11847;SDS011;5983;49.966;8.052;2023-02-28T06:41:54;2.23;;;1.60;;
11847;SDS011;5983;49.966;8.052;2023-02-28T06:44:22;2.13;;;1.60;;
11847;SDS011;5983;49.966;8.052;2023-02-28T06:46:53;2.87;;;1.87;;
11847;SDS011;5983;49.966;8.052;2023-02-28T06:49:20;4.27;;;2.70;;
11847;SDS011;5983;49.966;8.052;2023-02-28T06:51:47;3.87;;;2.90;;
11847;SDS011;5983;49.966;8.052;2023-02-28T06:54:14;8.17;;;4.07;;
11847;SDS011;5983;49.966;8.052;2023-02-28T06:56:41;10.10;;;4.80;;
11847;SDS011;5983;49.966;8.052;2023-02-28T06:59:08;8.43;;;4.23;;
11847;SDS011;5983;49.966;8.052;2023-02-28T07:01:35;6.37;;;3.70;;
11847;SDS011;5983;49.966;8.052;2023-02-28T07:04:04;3.80;;;2.20;;
11847;SDS011;5983;49.966;8.052;2023-02-28T07:06:32;4.50;;;2.03;;
11847;SDS011;5983;49.966;8.052;2023-02-28T07:08:59;3.87;;;2.50;;
11847;SDS011;5983;49.966;8.052;2023-02-28T07:11:27;5.00;;;3.17;;
11847;SDS011;5983;49.966;8.052;2023-02-28T07:13:55;3.47;;;2.40;;
11847;SDS011;5983;49.966;8.052;2023-02-28T07:16:23;5.40;;;3.07;;
11847;SDS011;5983;49.966;8.052;2023-02-28T07:18:52;5.17;;;3.20;;
11847;SDS011;5983;49.966;8.052;2023-02-28T07:21:21;5.47;;;3.40;;
11847;SDS011;5983;49.966;8.052;2023-02-28T07:23:48;5.37;;;3.73;;
11847;SDS011;5983;49.966;8.052;2023-02-28T07:26:17;5.57;;;3.33;;
11847;SDS011;5983;49.966;8.052;2023-02-28T07:28:46;5.47;;;3.30;;
11847;SDS011;5983;49.966;8.052;2023-02-28T07:31:15;4.30;;;2.20;;
11847;SDS011;5983;49.966;8.052;2023-02-28T07:33:43;3.97;;;2.50;;
11847;SDS011;5983;49.966;8.052;2023-02-28T07:36:11;3.00;;;1.80;;
11847;SDS011;5983;49.966;8.052;2023-02-28T07:38:43;3.07;;;1.70;;
11847;SDS011;5983;49.966;8.052;2023-02-28T07:41:13;2.43;;;1.67;;
11847;SDS011;5983;49.966;8.052;2023-02-28T07:43:41;2.47;;;2.03;;
11847;SDS011;5983;49.966;8.052;2023-02-28T07:46:10;2.70;;;1.80;;
11847;SDS011;5983;49.966;8.052;2023-02-28T07:48:40;3.20;;;1.80;;
11847;SDS011;5983;49.966;8.052;2023-02-28T07:51:08;2.23;;;1.80;;
11847;SDS011;5983;49.966;8.052;2023-02-28T07:53:35;2.50;;;1.57;;
11847;SDS011;5983;49.966;8.052;2023-02-28T07:56:04;2.00;;;1.70;;
11847;SDS011;5983;49.966;8.052;2023-02-28T07:58:32;2.03;;;1.50;;
11847;SDS011;5983;49.966;8.052;2023-02-28T08:01:04;1.83;;;1.47;;
11847;SDS011;5983;49.966;8.052;2023-02-28T08:03:32;1.67;;;1.40;;
11847;SDS011;5983;49.966;8.052;2023-02-28T08:06:00;2.00;;;1.30;;
11847;SDS011;5983;49.966;8.052;2023-02-28T08:08:28;3.70;;;1.43;;
11847;SDS011;5983;49.966;8.052;2023-02-28T08:10:57;4.30;;;1.40;;
11847;SDS011;5983;49.966;8.052;2023-02-28T08:13:28;4.87;;;1.90;;
11847;SDS011;5983;49.966;8.052;2023-02-28T08:15:56;4.40;;;1.20;;
11847;SDS011;5983;49.966;8.052;2023-02-28T08:18:23;4.87;;;2.17;;
11847;SDS011;5983;49.966;8.052;2023-02-28T08:20:50;3.17;;;2.50;;
11847;SDS011;5983;49.966;8.052;2023-02-28T08:23:17;4.63;;;3.60;;
11847;SDS011;5983;49.966;8.052;2023-02-28T08:25:45;2.40;;;1.90;;
11847;SDS011;5983;49.966;8.052;2023-02-28T08:28:19;2.13;;;1.50;;
11847;SDS011;5983;49.966;8.052;2023-02-28T08:30:47;3.43;;;1.40;;
11847;SDS011;5983;49.966;8.052;2023-02-28T08:33:15;2.03;;;1.50;;
11847;SDS011;5983;49.966;8.052;2023-02-28T08:35:42;2.13;;;1.67;;
11847;SDS011;5983;49.966;8.052;2023-02-28T08:38:09;1.70;;;1.47;;
11847;SDS011;5983;49.966;8.052;2023-02-28T08:40:35;4.00;;;1.60;;
11847;SDS011;5983;49.966;8.052;2023-02-28T08:43:03;1.83;;;1.60;;
11847;SDS011;5983;49.966;8.052;2023-02-28T08:45:30;1.70;;;1.60;;
11847;SDS011;5983;49.966;8.052;2023-02-28T08:47:58;2.40;;;1.90;;
11847;SDS011;5983;49.966;8.052;2023-02-28T08:50:25;2.77;;;2.10;;
11847;SDS011;5983;49.966;8.052;2023-02-28T08:52:52;2.20;;;1.80;;
11847;SDS011;5983;49.966;8.052;2023-02-28T08:55:19;3.30;;;2.03;;
11847;SDS011;5983;49.966;8.052;2023-02-28T08:57:47;2.47;;;1.60;;
11847;SDS011;5983;49.966;8.052;2023-02-28T09:00:14;2.00;;;1.80;;
11847;SDS011;5983;49.966;8.052;2023-02-28T09:02:41;4.50;;;2.10;;
11847;SDS011;5983;49.966;8.052;2023-02-28T09:05:10;3.80;;;2.07;;
11847;SDS011;5983;49.966;8.052;2023-02-28T09:07:37;2.77;;;2.10;;
11847;SDS011;5983;49.966;8.052;2023-02-28T09:10:04;3.53;;;1.90;;
11847;SDS011;5983;49.966;8.052;2023-02-28T09:12:32;7.70;;;2.23;;
11847;SDS011;5983;49.966;8.052;2023-02-28T09:15:00;2.83;;;2.07;;
11847;SDS011;5983;49.966;8.052;2023-02-28T09:17:28;3.53;;;1.90;;
11847;SDS011;5983;49.966;8.052;2023-02-28T09:19:55;2.40;;;2.20;;
11847;SDS011;5983;49.966;8.052;2023-02-28T09:22:24;2.30;;;2.10;;
11847;SDS011;5983;49.966;8.052;2023-02-28T09:24:51;2.00;;;1.70;;
11847;SDS011;5983;49.966;8.052;2023-02-28T09:27:18;4.17;;;2.03;;
11847;SDS011;5983;49.966;8.052;2023-02-28T09:29:45;2.80;;;1.77;;
11847;SDS011;5983;49.966;8.052;2023-02-28T09:32:12;3.97;;;2.40;;
11847;SDS011;5983;49.966;8.052;2023-02-28T09:34:39;2.80;;;1.80;;
11847;SDS011;5983;49.966;8.052;2023-02-28T09:37:06;3.73;;;2.07;;
11847;SDS011;5983;49.966;8.052;2023-02-28T09:39:35;3.30;;;2.00;;
11847;SDS011;5983;49.966;8.052;2023-02-28T09:42:02;2.30;;;1.83;;
11847;SDS011;5983;49.966;8.052;2023-02-28T09:44:33;2.17;;;1.70;;
11847;SDS011;5983;49.966;8.052;2023-02-28T09:47:07;3.60;;;2.30;;
11847;SDS011;5983;49.966;8.052;2023-02-28T09:49:45;2.07;;;1.90;;
11847;SDS011;5983;49.966;8.052;2023-02-28T09:52:14;2.43;;;1.77;;
11847;SDS011;5983;49.966;8.052;2023-02-28T09:54:45;2.37;;;1.73;;
11847;SDS011;5983;49.966;8.052;2023-02-28T09:57:15;3.27;;;1.93;;
11847;SDS011;5983;49.966;8.052;2023-02-28T09:59:53;2.57;;;1.90;;
11847;SDS011;5983;49.966;8.052;2023-02-28T10:02:46;5.37;;;2.30;;
11847;SDS011;5983;49.966;8.052;2023-02-28T10:05:41;2.77;;;1.80;;
11847;SDS011;5983;49.966;8.052;2023-02-28T10:08:18;2.47;;;2.10;;
11847;SDS011;5983;49.966;8.052;2023-02-28T10:10:53;3.80;;;2.27;;
11847;SDS011;5983;49.966;8.052;2023-02-28T10:13:25;2.83;;;2.00;;
11847;SDS011;5983;49.966;8.052;2023-02-28T10:16:01;2.60;;;2.27;;
11847;SDS011;5983;49.966;8.052;2023-02-28T10:18:38;5.47;;;2.00;;
11847;SDS011;5983;49.966;8.052;2023-02-28T10:21:15;2.43;;;1.90;;
11847;SDS011;5983;49.966;8.052;2023-02-28T10:23:49;4.70;;;2.17;;
11847;SDS011;5983;49.966;8.052;2023-02-28T10:26:29;3.77;;;2.13;;
11847;SDS011;5983;49.966;8.052;2023-02-28T10:28:58;2.20;;;1.90;;
11847;SDS011;5983;49.966;8.052;2023-02-28T10:31:27;3.20;;;2.47;;
11847;SDS011;5983;49.966;8.052;2023-02-28T10:33:54;3.17;;;2.23;;
11847;SDS011;5983;49.966;8.052;2023-02-28T10:36:21;2.47;;;2.17;;
11847;SDS011;5983;49.966;8.052;2023-02-28T10:38:48;3.07;;;2.10;;
11847;SDS011;5983;49.966;8.052;2023-02-28T10:41:17;2.20;;;1.80;;
11847;SDS011;5983;49.966;8.052;2023-02-28T10:44:12;1.90;;;1.80;;
11847;SDS011;5983;49.966;8.052;2023-02-28T10:46:46;2.17;;;1.90;;
11847;SDS011;5983;49.966;8.052;2023-02-28T10:49:17;2.63;;;1.70;;
11847;SDS011;5983;49.966;8.052;2023-02-28T10:51:49;2.37;;;1.70;;
11847;SDS011;5983;49.966;8.052;2023-02-28T10:54:23;2.37;;;2.13;;
11847;SDS011;5983;49.966;8.052;2023-02-28T10:57:08;3.83;;;2.00;;
11847;SDS011;5983;49.966;8.052;2023-02-28T10:59:43;2.10;;;1.90;;
11847;SDS011;5983;49.966;8.052;2023-02-28T11:04:58;2.53;;;2.13;;
11847;SDS011;5983;49.966;8.052;2023-02-28T11:07:26;4.47;;;2.60;;
11847;SDS011;5983;49.966;8.052;2023-02-28T11:09:54;4.13;;;2.80;;
11847;SDS011;5983;49.966;8.052;2023-02-28T11:12:25;4.67;;;3.47;;
11847;SDS011;5983;49.966;8.052;2023-02-28T11:14:57;2.67;;;1.97;;
11847;SDS011;5983;49.966;8.052;2023-02-28T11:17:29;4.10;;;2.30;;
11847;SDS011;5983;49.966;8.052;2023-02-28T11:19:58;3.00;;;2.23;;
11847;SDS011;5983;49.966;8.052;2023-02-28T11:22:31;2.60;;;1.70;;
11847;SDS011;5983;49.966;8.052;2023-02-28T11:25:06;4.80;;;1.90;;
11847;SDS011;5983;49.966;8.052;2023-02-28T11:27:47;2.70;;;2.00;;
11847;SDS011;5983;49.966;8.052;2023-02-28T11:30:24;3.43;;;2.00;;
11847;SDS011;5983;49.966;8.052;2023-02-28T11:33:00;3.00;;;2.30;;
11847;SDS011;5983;49.966;8.052;2023-02-28T11:35:48;2.40;;;2.20;;
11847;SDS011;5983;49.966;8.052;2023-02-28T11:38:17;2.63;;;2.33;;
11847;SDS011;5983;49.966;8.052;2023-02-28T11:40:46;3.60;;;2.20;;
11847;SDS011;5983;49.966;8.052;2023-02-28T11:43:32;3.00;;;2.33;;
11847;SDS011;5983;49.966;8.052;2023-02-28T11:46:20;2.50;;;2.30;;
11847;SDS011;5983;49.966;8.052;2023-02-28T11:49:02;2.60;;;2.37;;
11847;SDS011;5983;49.966;8.052;2023-02-28T11:51:48;3.17;;;2.50;;
11847;SDS011;5983;49.966;8.052;2023-02-28T11:54:27;3.97;;;2.90;;
11847;SDS011;5983;49.966;8.052;2023-02-28T11:57:16;4.60;;;2.70;;
11847;SDS011;5983;49.966;8.052;2023-02-28T12:00:25;3.50;;;2.33;;
11847;SDS011;5983;49.966;8.052;2023-02-28T12:03:24;3.80;;;2.53;;
11847;SDS011;5983;49.966;8.052;2023-02-28T12:06:01;3.47;;;2.67;;
11847;SDS011;5983;49.966;8.052;2023-02-28T12:08:47;2.33;;;2.13;;
11847;SDS011;5983;49.966;8.052;2023-02-28T12:11:28;3.80;;;2.60;;
11847;SDS011;5983;49.966;8.052;2023-02-28T12:14:16;3.03;;;2.13;;
11847;SDS011;5983;49.966;8.052;2023-02-28T12:17:16;2.27;;;2.07;;
11847;SDS011;5983;49.966;8.052;2023-02-28T12:20:05;3.40;;;2.13;;
11847;SDS011;5983;49.966;8.052;2023-02-28T12:22:49;3.07;;;2.17;;
11847;SDS011;5983;49.966;8.052;2023-02-28T12:25:38;2.33;;;2.13;;
11847;SDS011;5983;49.966;8.052;2023-02-28T12:28:20;3.37;;;2.10;;
11847;SDS011;5983;49.966;8.052;2023-02-28T12:30:54;2.37;;;2.17;;
11847;SDS011;5983;49.966;8.052;2023-02-28T12:33:32;4.17;;;2.20;;
11847;SDS011;5983;49.966;8.052;2023-02-28T12:36:05;1.80;;;1.70;;
11847;SDS011;5983;49.966;8.052;2023-02-28T12:38:38;3.27;;;2.40;;
11847;SDS011;5983;49.966;8.052;2023-02-28T12:41:11;2.20;;;2.00;;
11847;SDS011;5983;49.966;8.052;2023-02-28T12:43:43;2.50;;;2.30;;
11847;SDS011;5983;49.966;8.052;2023-02-28T12:46:14;3.43;;;2.13;;
11847;SDS011;5983;49.966;8.052;2023-02-28T12:48:49;3.40;;;2.50;;
11847;SDS011;5983;49.966;8.052;2023-02-28T12:51:21;3.40;;;2.27;;
11847;SDS011;5983;49.966;8.052;2023-02-28T12:53:54;4.20;;;2.10;;
11847;SDS011;5983;49.966;8.052;2023-02-28T12:56:36;4.10;;;2.40;;
11847;SDS011;5983;49.966;8.052;2023-02-28T12:59:13;2.40;;;2.00;;
11847;SDS011;5983;49.966;8.052;2023-02-28T13:05:26;3.60;;;2.70;;
11847;SDS011;5983;49.966;8.052;2023-02-28T13:08:32;2.93;;;2.60;;
11847;SDS011;5983;49.966;8.052;2023-02-28T13:11:24;2.77;;;2.40;;
11847;SDS011;5983;49.966;8.052;2023-02-28T13:13:58;3.97;;;2.43;;
11847;SDS011;5983;49.966;8.052;2023-02-28T13:16:42;2.97;;;2.63;;
11847;SDS011;5983;49.966;8.052;2023-02-28T13:19:21;4.20;;;2.63;;
11847;SDS011;5983;49.966;8.052;2023-02-28T13:21:52;3.60;;;2.40;;
11847;SDS011;5983;49.966;8.052;2023-02-28T13:30:00;2.93;;;2.63;;
11847;SDS011;5983;49.966;8.052;2023-02-28T13:33:21;4.70;;;3.10;;
11847;SDS011;5983;49.966;8.052;2023-02-28T13:36:01;3.33;;;2.80;;
11847;SDS011;5983;49.966;8.052;2023-02-28T13:38:50;2.90;;;2.43;;
11847;SDS011;5983;49.966;8.052;2023-02-28T13:44:13;3.10;;;2.60;;
11847;SDS011;5983;49.966;8.052;2023-02-28T13:49:49;2.63;;;2.43;;
11847;SDS011;5983;49.966;8.052;2023-02-28T13:52:19;3.37;;;3.00;;
11847;SDS011;5983;49.966;8.052;2023-02-28T13:55:10;4.10;;;2.97;;
11847;SDS011;5983;49.966;8.052;2023-02-28T13:57:58;6.77;;;4.10;;
11847;SDS011;5983;49.966;8.052;2023-02-28T14:01:07;4.67;;;4.10;;
11847;SDS011;5983;49.966;8.052;2023-02-28T14:04:03;4.73;;;3.23;;
11847;SDS011;5983;49.966;8.052;2023-02-28T14:07:15;3.70;;;3.37;;
11847;SDS011;5983;49.966;8.052;2023-02-28T14:09:49;4.43;;;2.97;;
11847;SDS011;5983;49.966;8.052;2023-02-28T14:15:56;3.33;;;3.03;;
11847;SDS011;5983;49.966;8.052;2023-02-28T14:18:27;5.27;;;3.10;;
11847;SDS011;5983;49.966;8.052;2023-02-28T14:20:59;3.27;;;2.77;;
11847;SDS011;5983;49.966;8.052;2023-02-28T14:27:21;3.30;;;3.00;;
11847;SDS011;5983;49.966;8.052;2023-02-28T14:30:19;3.97;;;3.20;;
11847;SDS011;5983;49.966;8.052;2023-02-28T14:33:34;3.77;;;3.20;;
11847;SDS011;5983;49.966;8.052;2023-02-28T14:36:18;5.00;;;3.27;;
11847;SDS011;5983;49.966;8.052;2023-02-28T14:38:51;3.83;;;3.40;;
11847;SDS011;5983;49.966;8.052;2023-02-28T14:41:23;4.17;;;3.17;;
11847;SDS011;5983;49.966;8.052;2023-02-28T14:43:56;3.00;;;2.67;;
11847;SDS011;5983;49.966;8.052;2023-02-28T14:46:26;3.23;;;2.90;;
11847;SDS011;5983;49.966;8.052;2023-02-28T14:49:03;4.90;;;2.63;;
11847;SDS011;5983;49.966;8.052;2023-02-28T14:51:32;3.50;;;3.17;;
11847;SDS011;5983;49.966;8.052;2023-02-28T14:54:00;3.40;;;2.90;;
11847;SDS011;5983;49.966;8.052;2023-02-28T14:56:30;4.23;;;3.57;;
11847;SDS011;5983;49.966;8.052;2023-02-28T14:59:02;6.87;;;3.33;;
11847;SDS011;5983;49.966;8.052;2023-02-28T15:01:31;3.53;;;3.23;;
11847;SDS011;5983;49.966;8.052;2023-02-28T15:03:59;3.93;;;3.13;;
11847;SDS011;5983;49.966;8.052;2023-02-28T15:06:31;3.90;;;3.33;;
11847;SDS011;5983;49.966;8.052;2023-02-28T15:09:09;4.87;;;3.30;;
11847;SDS011;5983;49.966;8.052;2023-02-28T15:11:40;5.10;;;3.50;;
11847;SDS011;5983;49.966;8.052;2023-02-28T15:14:12;3.87;;;3.30;;
11847;SDS011;5983;49.966;8.052;2023-02-28T15:16:45;3.53;;;3.23;;
11847;SDS011;5983;49.966;8.052;2023-02-28T15:19:20;3.60;;;3.10;;
11847;SDS011;5983;49.966;8.052;2023-02-28T15:21:51;4.33;;;3.60;;
11847;SDS011;5983;49.966;8.052;2023-02-28T15:24:26;3.47;;;3.10;;
11847;SDS011;5983;49.966;8.052;2023-02-28T15:27:04;3.23;;;2.70;;
11847;SDS011;5983;49.966;8.052;2023-02-28T15:29:36;7.73;;;4.80;;
11847;SDS011;5983;49.966;8.052;2023-02-28T15:32:21;3.83;;;3.20;;
11847;SDS011;5983;49.966;8.052;2023-02-28T15:34:54;4.77;;;3.40;;
11847;SDS011;5983;49.966;8.052;2023-02-28T15:37:29;5.33;;;3.60;;
11847;SDS011;5983;49.966;8.052;2023-02-28T15:40:10;3.90;;;3.50;;
11847;SDS011;5983;49.966;8.052;2023-02-28T15:42:57;4.40;;;3.10;;
11847;SDS011;5983;49.966;8.052;2023-02-28T15:45:41;4.67;;;3.50;;
11847;SDS011;5983;49.966;8.052;2023-02-28T15:48:14;4.73;;;3.53;;
11847;SDS011;5983;49.966;8.052;2023-02-28T15:50:48;4.73;;;3.07;;
11847;SDS011;5983;49.966;8.052;2023-02-28T15:53:21;5.73;;;3.27;;
11847;SDS011;5983;49.966;8.052;2023-02-28T15:55:52;3.60;;;3.10;;
11847;SDS011;5983;49.966;8.052;2023-02-28T15:58:24;5.53;;;3.30;;
11847;SDS011;5983;49.966;8.052;2023-02-28T16:01:04;4.07;;;3.33;;
11847;SDS011;5983;49.966;8.052;2023-02-28T16:03:38;5.00;;;3.50;;
11847;SDS011;5983;49.966;8.052;2023-02-28T16:06:24;4.40;;;3.90;;